Time;durP1;ratioP1;P1;durP2;ratioP2;P2;SDS_P1;SDS_P2;PMS_P1;PMS_P2;Temp;Humidity;BMP_temperature;BMP_pressure;BME280_temperature;BME280_humidity;BME280_pressure;Samples;Min_cycle;Max_cycle;Signal;HPM_P1;HPM_P2
2021/05/21 00:02:17;;;;;;;4.00;2.33;;;10.70;69.30;;;;;;5131918;27;20469;-83
2021/05/21 00:04:52;;;;;;;2.60;2.40;;;10.90;69.60;;;;;;5153107;27;20436;-81
2021/05/21 00:07:28;;;;;;;2.20;2.00;;;10.70;69.80;;;;;;5142928;27;20457;-82
2021/05/21 00:10:02;;;;;;;2.40;2.20;;;10.40;70.20;;;;;;5145777;27;20498;-83
2021/05/21 00:12:39;;;;;;;2.83;1.83;;;10.50;71.30;;;;;;5140364;27;20813;-83
2021/05/21 00:15:15;;;;;;;2.37;2.17;;;10.40;71.30;;;;;;5151419;27;20673;-84
2021/05/21 00:17:50;;;;;;;2.83;2.60;;;10.60;70.90;;;;;;5141252;27;20473;-82
2021/05/21 00:20:25;;;;;;;2.60;2.40;;;10.60;71.10;;;;;;5144904;27;20444;-81
2021/05/21 00:23:02;;;;;;;2.37;2.17;;;10.60;71.10;;;;;;5133217;27;20444;-82
2021/05/21 00:25:38;;;;;;;2.53;2.33;;;10.70;70.90;;;;;;5144666;27;20442;-82
2021/05/21 00:28:12;;;;;;;4.00;2.73;;;10.50;71.10;;;;;;5142416;27;20561;-81
2021/05/21 00:30:48;;;;;;;2.90;2.20;;;10.50;71.70;;;;;;5127949;27;20491;-81
2021/05/21 00:33:23;;;;;;;2.40;2.13;;;10.50;72.10;;;;;;5144296;27;20460;-80
2021/05/21 00:35:57;;;;;;;2.90;2.10;;;10.50;71.80;;;;;;5148291;27;20563;-83
2021/05/21 00:38:34;;;;;;;2.60;2.40;;;10.50;72.20;;;;;;5146081;27;20511;-84
2021/05/21 00:41:09;;;;;;;2.33;2.13;;;10.50;72.60;;;;;;5141831;27;20442;-81
2021/05/21 00:43:44;;;;;;;3.23;2.33;;;10.70;71.80;;;;;;5130907;27;20519;-84
2021/05/21 00:46:19;;;;;;;2.47;2.27;;;10.50;71.90;;;;;;5144079;27;20476;-84
2021/05/21 00:48:55;;;;;;;2.17;2.07;;;10.20;72.70;;;;;;5141309;27;20456;-81
2021/05/21 00:51:32;;;;;;;2.40;2.20;;;10.30;73.10;;;;;;5137356;27;20749;-81
2021/05/21 00:54:10;;;;;;;2.27;2.07;;;10.30;73.40;;;;;;5143644;27;20445;-82
2021/05/21 00:56:45;;;;;;;2.10;2.00;;;10.30;73.60;;;;;;5145583;27;20445;-81
2021/05/21 00:59:21;;;;;;;3.50;1.97;;;10.30;73.60;;;;;;5140701;27;20477;-81
2021/05/21 01:01:57;;;;;;;2.40;2.20;;;10.10;73.70;;;;;;5143091;27;20500;-82
2021/05/21 01:04:32;;;;;;;2.47;2.17;;;10.20;74.10;;;;;;5141322;27;20490;-81
2021/05/21 01:07:07;;;;;;;2.37;2.17;;;10.30;73.70;;;;;;5149143;27;20460;-83
2021/05/21 01:09:42;;;;;;;2.47;2.27;;;10.40;74.10;;;;;;5146984;27;20449;-84
2021/05/21 01:12:17;;;;;;;2.47;2.27;;;10.20;74.20;;;;;;5146401;27;20444;-82
2021/05/21 01:14:53;;;;;;;2.37;1.90;;;10.10;74.90;;;;;;5145432;27;20453;-82
2021/05/21 01:17:29;;;;;;;2.47;2.27;;;10.10;74.80;;;;;;5146498;27;20502;-82
2021/05/21 01:20:03;;;;;;;2.50;2.23;;;10.20;74.70;;;;;;5140565;27;21236;-80
2021/05/21 01:22:39;;;;;;;1.90;1.80;;;10.10;75.00;;;;;;5149319;27;20464;-80
2021/05/21 01:25:14;;;;;;;2.40;2.20;;;10.10;74.70;;;;;;5149118;27;20490;-80
2021/05/21 01:27:49;;;;;;;3.33;2.20;;;9.90;76.90;;;;;;5137303;27;20441;-80
2021/05/21 01:30:25;;;;;;;2.00;1.90;;;9.90;76.70;;;;;;5145057;27;20470;-80
2021/05/21 01:33:07;;;;;;;2.17;1.97;;;9.80;77.70;;;;;;5142154;27;20456;-81
2021/05/21 01:35:42;;;;;;;2.37;2.17;;;9.80;77.70;;;;;;5144379;27;20497;-80
2021/05/21 01:38:18;;;;;;;2.20;2.00;;;9.70;77.30;;;;;;5142052;27;21033;-80
2021/05/21 01:41:01;;;;;;;2.17;1.97;;;9.70;78.60;;;;;;5145842;27;20447;-81
2021/05/21 01:43:37;;;;;;;1.97;1.87;;;9.70;77.50;;;;;;5146149;27;20518;-80
2021/05/21 01:46:17;;;;;;;2.10;1.90;;;9.80;78.10;;;;;;5145318;27;20469;-80
2021/05/21 01:48:53;;;;;;;2.20;2.00;;;9.90;78.60;;;;;;5152367;27;20431;-82
2021/05/21 01:51:28;;;;;;;2.27;2.10;;;9.70;77.50;;;;;;5151268;27;20484;-80
2021/05/21 01:57:12;;;;;;;2.20;2.00;;;9.90;78.10;;;;;;5091694;27;20575;-80
2021/05/21 01:59:47;;;;;;;2.00;1.90;;;9.70;78.20;;;;;;5076653;28;20444;-80
2021/05/21 02:02:22;;;;;;;2.33;2.13;;;9.70;78.50;;;;;;5066226;28;20461;-81
2021/05/21 02:04:57;;;;;;;3.50;2.10;;;9.90;77.70;;;;;;5063666;28;20459;-80
2021/05/21 02:07:32;;;;;;;1.33;1.23;;;10.00;76.70;;;;;;5065146;28;20575;-81
2021/05/21 02:10:08;;;;;;;1.97;1.87;;;10.30;76.20;;;;;;5059091;28;20446;-80
2021/05/21 02:12:48;;;;;;;1.90;1.80;;;10.40;75.80;;;;;;5066765;28;20451;-80
2021/05/21 02:15:24;;;;;;;1.70;1.60;;;10.60;74.80;;;;;;5053081;28;20491;-80
2021/05/21 02:17:59;;;;;;;2.00;1.90;;;10.60;74.20;;;;;;5061498;28;20573;-80
2021/05/21 02:20:34;;;;;;;2.33;1.87;;;10.60;74.50;;;;;;5057297;28;20445;-79
2021/05/21 02:23:11;;;;;;;1.87;1.77;;;11.00;73.70;;;;;;5060950;28;20471;-81
2021/05/21 02:25:49;;;;;;;2.10;1.90;;;10.90;73.60;;;;;;5063987;28;20444;-79
2021/05/21 02:28:25;;;;;;;2.57;1.93;;;11.10;73.20;;;;;;5062299;28;20469;-79
2021/05/21 02:31:00;;;;;;;2.00;1.90;;;11.00;72.80;;;;;;5060181;28;20458;-80
2021/05/21 02:33:35;;;;;;;1.87;1.77;;;11.00;72.90;;;;;;5057599;28;20463;-82
2021/05/21 02:36:10;;;;;;;2.20;2.00;;;10.80;72.60;;;;;;5056910;28;20465;-81
2021/05/21 02:38:45;;;;;;;2.20;1.90;;;11.00;73.00;;;;;;5060779;28;20476;-80
2021/05/21 02:41:25;;;;;;;1.60;1.50;;;10.90;73.00;;;;;;5068802;28;20463;-81
2021/05/21 02:44:00;;;;;;;1.70;1.60;;;10.90;72.70;;;;;;5050778;28;20484;-80
2021/05/21 02:46:36;;;;;;;1.40;1.30;;;10.60;73.20;;;;;;5054608;28;20514;-81
2021/05/21 02:49:10;;;;;;;2.97;2.13;;;11.10;72.40;;;;;;5047968;28;20535;-79
2021/05/21 02:51:45;;;;;;;2.00;1.80;;;10.90;72.40;;;;;;5058521;28;20481;-80
2021/05/21 02:54:20;;;;;;;1.97;1.87;;;10.90;72.70;;;;;;5054087;28;20480;-80
2021/05/21 02:56:54;;;;;;;2.03;1.60;;;10.80;72.80;;;;;;5051550;28;20472;-81
2021/05/21 02:59:32;;;;;;;3.00;2.17;;;11.10;72.50;;;;;;5048166;28;20504;-79
2021/05/21 03:02:07;;;;;;;2.37;1.67;;;10.90;72.00;;;;;;5049383;28;20444;-81
2021/05/21 03:04:42;;;;;;;2.10;1.73;;;10.70;72.10;;;;;;5055051;28;20491;-81
2021/05/21 03:07:17;;;;;;;2.13;1.93;;;10.70;72.50;;;;;;5043436;28;20440;-80
2021/05/21 03:09:52;;;;;;;4.20;2.20;;;10.80;72.80;;;;;;5037883;28;20460;-79
2021/05/21 03:12:27;;;;;;;2.07;1.90;;;11.00;72.60;;;;;;5037857;28;20456;-79
2021/05/21 03:15:02;;;;;;;2.17;1.97;;;11.00;71.70;;;;;;5041581;28;20463;-81
2021/05/21 03:17:37;;;;;;;2.00;1.90;;;11.00;72.00;;;;;;5045923;28;20478;-80
2021/05/21 03:20:13;;;;;;;2.97;1.80;;;11.20;71.60;;;;;;5043399;28;20464;-80
2021/05/21 03:22:48;;;;;;;2.33;2.13;;;11.30;71.40;;;;;;5044929;28;21375;-80
2021/05/21 03:25:23;;;;;;;2.33;1.80;;;11.00;71.10;;;;;;5047180;28;20466;-80
2021/05/21 03:27:58;;;;;;;1.50;1.40;;;11.10;71.70;;;;;;5041253;28;20453;-79
2021/05/21 03:30:35;;;;;;;1.73;1.63;;;11.30;71.00;;;;;;5040718;28;20518;-80
2021/05/21 03:33:11;;;;;;;2.93;1.50;;;11.50;71.10;;;;;;5044109;28;20446;-81
2021/05/21 03:35:45;;;;;;;3.97;2.70;;;11.40;70.50;;;;;;5035596;28;20477;-81
2021/05/21 03:38:20;;;;;;;2.23;2.00;;;11.80;70.10;;;;;;5044285;28;20441;-80
2021/05/21 03:40:55;;;;;;;3.23;1.90;;;11.80;70.10;;;;;;5043749;28;20909;-82
2021/05/21 03:43:29;;;;;;;2.37;2.17;;;11.90;69.40;;;;;;5042694;28;20976;-78
2021/05/21 03:46:05;;;;;;;2.13;1.93;;;11.70;69.30;;;;;;5041812;28;20512;-81
2021/05/21 03:48:40;;;;;;;2.20;2.10;;;11.60;69.90;;;;;;5036558;28;20445;-80
2021/05/21 03:51:17;;;;;;;3.07;2.00;;;11.90;69.30;;;;;;5041267;28;20497;-80
2021/05/21 03:53:52;;;;;;;2.10;2.00;;;11.80;69.10;;;;;;5036318;28;20456;-81
2021/05/21 03:56:26;;;;;;;2.20;2.00;;;11.80;69.10;;;;;;5038156;28;20605;-79
2021/05/21 03:59:01;;;;;;;2.37;2.10;;;11.70;69.10;;;;;;5032964;28;20516;-79
2021/05/21 04:01:37;;;;;;;2.70;2.20;;;11.50;68.50;;;;;;5029830;28;20464;-81
2021/05/21 04:04:12;;;;;;;2.23;2.03;;;11.50;69.60;;;;;;5038626;28;20444;-81
2021/05/21 04:06:47;;;;;;;2.00;1.90;;;11.70;69.00;;;;;;5038513;28;20460;-80
2021/05/21 04:09:30;;;;;;;2.50;2.30;;;11.60;68.90;;;;;;5036246;28;20453;-81
2021/05/21 04:12:05;;;;;;;2.00;1.90;;;11.50;68.70;;;;;;5038370;28;20446;-80
2021/05/21 04:14:40;;;;;;;2.20;1.70;;;11.50;69.10;;;;;;5040669;28;20472;-81
2021/05/21 04:17:16;;;;;;;4.83;1.90;;;11.80;69.20;;;;;;5039484;28;20481;-79
2021/05/21 04:19:56;;;;;;;1.93;1.83;;;11.80;68.30;;;;;;5039018;28;20473;-80
2021/05/21 04:22:31;;;;;;;1.80;1.70;;;12.00;68.60;;;;;;5046661;28;20488;-80
2021/05/21 04:25:06;;;;;;;2.20;1.73;;;12.20;68.00;;;;;;5041913;28;20448;-81
2021/05/21 04:27:41;;;;;;;2.40;2.20;;;12.20;67.50;;;;;;5036149;28;20461;-80
2021/05/21 04:30:16;;;;;;;2.17;1.77;;;12.10;67.60;;;;;;5032791;28;20476;-80
2021/05/21 04:32:53;;;;;;;3.97;2.30;;;12.30;67.30;;;;;;5040840;28;20594;-79
2021/05/21 04:35:28;;;;;;;2.27;2.03;;;12.40;67.10;;;;;;5035340;28;21554;-80
2021/05/21 04:38:03;;;;;;;2.00;1.90;;;12.40;66.90;;;;;;5037616;28;20455;-80
2021/05/21 04:40:38;;;;;;;3.67;1.97;;;12.60;66.30;;;;;;5042677;28;20448;-80
2021/05/21 04:43:13;;;;;;;1.77;1.67;;;12.70;66.00;;;;;;5033062;28;20483;-81
2021/05/21 04:45:47;;;;;;;2.70;1.87;;;12.60;65.80;;;;;;5039036;28;20536;-81
2021/05/21 04:48:23;;;;;;;1.67;1.47;;;12.60;65.70;;;;;;5042256;28;21047;-79
2021/05/21 04:50:59;;;;;;;2.47;2.27;;;12.40;66.00;;;;;;5038514;28;20481;-80
2021/05/21 04:53:33;;;;;;;2.03;1.93;;;12.40;66.00;;;;;;5040819;28;20537;-80
2021/05/21 04:56:08;;;;;;;3.10;1.97;;;12.50;66.30;;;;;;5039247;28;21051;-81
2021/05/21 04:58:43;;;;;;;2.83;1.90;;;12.80;65.80;;;;;;5046645;28;20485;-81
2021/05/21 05:01:18;;;;;;;2.47;1.90;;;13.00;65.30;;;;;;5043652;28;20470;-81
2021/05/21 05:03:51;;;;;;;4.60;2.20;;;12.80;65.00;;;;;;5038683;28;20512;-82
2021/05/21 05:06:26;;;;;;;2.07;1.97;;;12.80;64.50;;;;;;5036025;28;20479;-81
2021/05/21 05:09:01;;;;;;;2.83;2.20;;;13.20;65.20;;;;;;5039001;28;20472;-81
2021/05/21 05:11:37;;;;;;;2.17;2.00;;;13.30;64.10;;;;;;5039834;28;20750;-80
2021/05/21 05:14:13;;;;;;;5.37;2.40;;;13.80;64.30;;;;;;5039357;28;20507;-81
2021/05/21 05:16:48;;;;;;;2.00;1.90;;;14.10;62.80;;;;;;5042808;28;20461;-82
2021/05/21 05:19:26;;;;;;;2.67;2.10;;;14.50;63.00;;;;;;5041009;28;20458;-81
2021/05/21 05:22:03;;;;;;;2.17;1.93;;;15.20;62.00;;;;;;5039704;28;20469;-82
2021/05/21 05:24:42;;;;;;;2.93;2.20;;;15.50;60.70;;;;;;5047334;28;20525;-82
2021/05/21 05:27:22;;;;;;;3.07;2.07;;;15.50;60.30;;;;;;5045223;28;20443;-81
2021/05/21 05:29:58;;;;;;;2.63;2.13;;;15.60;59.70;;;;;;5050332;28;20542;-82
2021/05/21 05:32:34;;;;;;;2.33;1.80;;;15.90;59.70;;;;;;5049229;28;20460;-81
2021/05/21 05:35:08;;;;;;;2.70;2.30;;;15.40;59.10;;;;;;5048602;28;20482;-81
2021/05/21 05:37:40;;;;;;;1.87;1.70;;;15.00;59.40;;;;;;5049187;28;20435;-82
2021/05/21 05:40:15;;;;;;;1.90;1.70;;;15.00;59.80;;;;;;5040430;28;20447;-82
2021/05/21 05:42:51;;;;;;;2.00;1.90;;;15.00;59.60;;;;;;5049642;28;20946;-81
2021/05/21 05:45:26;;;;;;;2.00;1.90;;;15.20;59.40;;;;;;5038943;28;20981;-80
2021/05/21 05:48:02;;;;;;;3.90;2.30;;;15.50;59.50;;;;;;5038926;28;20504;-82
2021/05/21 05:50:37;;;;;;;2.47;2.27;;;15.70;59.00;;;;;;5036800;28;20535;-82
2021/05/21 05:53:12;;;;;;;6.17;2.70;;;15.90;58.70;;;;;;5040982;28;20450;-81
2021/05/21 05:55:47;;;;;;;3.53;2.40;;;16.00;58.80;;;;;;5034940;28;20491;-82
2021/05/21 05:58:22;;;;;;;3.80;3.10;;;15.80;58.50;;;;;;5047878;28;20467;-83
2021/05/21 06:00:59;;;;;;;3.90;3.07;;;15.80;58.30;;;;;;5039899;28;20826;-81
2021/05/21 06:03:35;;;;;;;3.87;3.47;;;16.30;58.00;;;;;;5043696;28;20501;-84
2021/05/21 06:06:11;;;;;;;4.83;2.80;;;17.10;58.00;;;;;;5030697;28;20460;-82
2021/05/21 06:08:46;;;;;;;5.47;3.07;;;17.20;57.10;;;;;;5037549;28;20929;-85
2021/05/21 06:11:21;;;;;;;3.07;2.77;;;17.50;57.30;;;;;;5037759;28;20485;-84
2021/05/21 06:13:56;;;;;;;2.90;2.70;;;17.30;56.80;;;;;;5044294;28;20451;-85
2021/05/21 06:16:36;;;;;;;11.40;2.97;;;17.20;56.20;;;;;;5039446;28;20473;-84
2021/05/21 06:19:08;;;;;;;3.17;2.40;;;16.90;55.90;;;;;;5039203;28;20454;-84
2021/05/21 06:21:44;;;;;;;3.47;2.10;;;17.10;56.00;;;;;;5041288;28;20516;-81
2021/05/21 06:24:19;;;;;;;4.00;2.17;;;16.70;55.50;;;;;;5040726;28;20526;-81
2021/05/21 06:29:41;;;;;;;3.00;1.80;;;17.10;55.60;;;;;;5042963;28;20491;-80
2021/05/21 06:32:16;;;;;;;2.30;1.50;;;17.20;55.60;;;;;;5046752;28;20459;-80
2021/05/21 06:34:51;;;;;;;3.37;1.90;;;17.10;55.10;;;;;;5049267;28;20508;-83
2021/05/21 06:37:28;;;;;;;2.60;1.70;;;17.40;54.90;;;;;;5048800;28;21383;-79
2021/05/21 06:40:03;;;;;;;2.03;1.70;;;17.30;54.80;;;;;;5038404;28;20485;-77
2021/05/21 06:42:37;;;;;;;3.37;2.10;;;17.40;54.60;;;;;;5028012;28;20449;-78
2021/05/21 06:45:13;;;;;;;2.73;1.40;;;17.30;54.30;;;;;;5031235;28;20470;-77
2021/05/21 06:47:49;;;;;;;1.90;1.70;;;17.30;54.10;;;;;;5038116;28;20609;-82
2021/05/21 06:50:23;;;;;;;1.83;1.20;;;17.50;54.40;;;;;;5038325;28;20206;-81
2021/05/21 06:53:00;;;;;;;2.03;1.60;;;17.50;54.20;;;;;;5039372;28;20457;-88
2021/05/21 06:55:36;;;;;;;1.43;1.33;;;17.60;54.00;;;;;;5041003;28;20222;-83
2021/05/21 06:58:18;;;;;;;8.53;1.63;;;17.50;53.80;;;;;;5048722;28;20453;-85
2021/05/21 07:00:54;;;;;;;5.70;1.70;;;17.60;53.60;;;;;;5032468;28;20460;-81
2021/05/21 07:03:31;;;;;;;1.90;1.40;;;17.70;53.40;;;;;;5033939;28;20860;-77
2021/05/21 07:06:06;;;;;;;3.50;1.50;;;17.70;53.30;;;;;;5040512;28;20523;-77
2021/05/21 07:08:42;;;;;;;1.20;1.10;;;17.80;52.80;;;;;;5036321;28;20493;-75
2021/05/21 07:11:16;;;;;;;1.47;1.37;;;17.80;52.90;;;;;;5033763;28;20444;-75
2021/05/21 07:13:51;;;;;;;1.73;1.30;;;17.50;52.40;;;;;;5037358;28;20471;-76
2021/05/21 07:16:26;;;;;;;1.53;1.30;;;17.20;52.70;;;;;;5037913;28;20487;-80
2021/05/21 07:19:01;;;;;;;4.37;1.33;;;17.30;53.00;;;;;;5032466;28;20505;-76
2021/05/21 07:21:35;;;;;;;2.10;1.30;;;17.40;53.00;;;;;;5033552;28;20568;-75
2021/05/21 07:24:11;;;;;;;2.17;1.55;;;17.60;53.10;;;;;;5033270;28;20442;-82
2021/05/21 07:26:46;;;;;;;3.07;1.30;;;17.30;52.90;;;;;;5034615;28;20186;-75
2021/05/21 07:29:21;;;;;;;3.10;1.37;;;17.50;53.00;;;;;;5026101;28;20447;-77
2021/05/21 07:31:56;;;;;;;3.43;1.30;;;17.70;53.00;;;;;;5029500;28;20480;-75
2021/05/21 07:34:32;;;;;;;2.63;1.30;;;18.00;53.00;;;;;;5031321;28;20452;-80
2021/05/21 07:37:07;;;;;;;1.80;1.47;;;17.60;52.90;;;;;;5030215;28;20591;-75
2021/05/21 07:39:43;;;;;;;1.20;1.10;;;17.40;53.20;;;;;;5033703;28;20467;-74
2021/05/21 07:42:17;;;;;;;5.30;1.20;;;17.20;53.20;;;;;;5033372;28;20450;-75
2021/05/21 07:44:52;;;;;;;3.07;1.30;;;17.00;53.00;;;;;;5031157;28;20487;-78
2021/05/21 07:47:27;;;;;;;5.43;1.20;;;17.30;53.00;;;;;;5029889;28;20453;-75
2021/05/21 07:50:02;;;;;;;1.30;1.20;;;17.40;53.20;;;;;;5031116;28;20453;-73
2021/05/21 07:52:37;;;;;;;2.10;1.20;;;17.10;53.30;;;;;;5031389;28;20879;-75
2021/05/21 07:55:11;;;;;;;1.83;1.37;;;17.00;53.30;;;;;;5034759;28;20889;-76
2021/05/21 07:57:46;;;;;;;1.88;1.40;;;16.90;53.40;;;;;;5033537;28;20461;-77
2021/05/21 08:00:21;;;;;;;6.00;1.80;;;16.90;53.60;;;;;;5027074;28;20202;-75
2021/05/21 08:02:56;;;;;;;4.17;1.50;;;16.70;53.50;;;;;;5029459;28;20501;-73
2021/05/21 08:05:31;;;;;;;2.00;1.17;;;16.60;53.90;;;;;;5032066;28;20457;-78
2021/05/21 08:08:06;;;;;;;5.70;1.37;;;16.80;54.00;;;;;;5034344;28;20455;-76
2021/05/21 08:10:41;;;;;;;3.57;2.00;;;17.00;53.70;;;;;;5026263;28;20452;-80
2021/05/21 08:13:16;;;;;;;2.20;1.37;;;17.20;53.60;;;;;;5028437;28;20457;-74
2021/05/21 08:15:51;;;;;;;1.60;1.50;;;17.60;53.60;;;;;;5032866;28;20521;-74
2021/05/21 08:18:26;;;;;;;1.30;1.20;;;17.60;53.20;;;;;;5047654;28;20465;-79
2021/05/21 08:24:13;;;;;;;1.83;1.50;;;17.50;53.30;;;;;;4954064;29;20540;-75
2021/05/21 08:26:49;;;;;;;1.40;1.30;;;17.50;53.60;;;;;;5032527;28;20511;-75
2021/05/21 08:29:24;;;;;;;4.20;1.40;;;17.60;53.60;;;;;;5026062;28;20821;-82
2021/05/21 08:32:01;;;;;;;2.50;1.50;;;17.80;53.30;;;;;;5030078;28;20508;-79
2021/05/21 08:34:37;;;;;;;2.73;1.07;;;17.80;53.40;;;;;;5038271;28;20751;-80
2021/05/21 08:37:12;;;;;;;2.10;1.67;;;17.90;53.40;;;;;;5038044;28;20493;-75
2021/05/21 08:40:07;;;;;;;1.73;1.60;;;17.80;53.50;;;;;;5032558;28;20502;-77
2021/05/21 08:42:45;;;;;;;2.27;2.00;;;17.80;53.50;;;;;;5032482;28;20456;-76
2021/05/21 08:45:21;;;;;;;2.80;2.23;;;17.90;53.30;;;;;;5031856;28;20443;-76
2021/05/21 08:47:57;;;;;;;2.80;2.00;;;18.20;53.20;;;;;;5030962;28;20443;-75
2021/05/21 08:50:32;;;;;;;3.00;1.90;;;18.30;53.10;;;;;;5031640;28;20207;-77
2021/05/21 08:53:07;;;;;;;1.80;1.50;;;18.20;53.10;;;;;;5024601;28;20487;-79
2021/05/21 08:55:41;;;;;;;1.50;1.40;;;18.40;52.70;;;;;;5026386;28;20986;-74
2021/05/21 08:58:20;;;;;;;4.40;1.63;;;18.40;52.70;;;;;;5026958;28;20493;-75
2021/05/21 09:00:55;;;;;;;2.70;1.40;;;18.40;52.70;;;;;;5032749;28;20450;-76
2021/05/21 09:03:31;;;;;;;1.90;1.50;;;18.40;52.50;;;;;;5028324;28;20580;-75
2021/05/21 09:06:21;;;;;;;2.20;1.47;;;18.40;52.50;;;;;;5033710;28;20968;-75
2021/05/21 09:08:57;;;;;;;4.73;1.47;;;18.00;52.60;;;;;;5036635;28;20496;-74
2021/05/21 09:11:35;;;;;;;5.83;1.80;;;18.10;52.70;;;;;;5039428;28;20504;-75
2021/05/21 09:14:14;;;;;;;2.30;1.10;;;17.90;52.70;;;;;;5034319;28;20452;-76
2021/05/21 09:16:48;;;;;;;1.50;1.17;;;17.70;53.10;;;;;;5030835;28;20472;-75
2021/05/21 09:19:25;;;;;;;2.50;1.30;;;17.70;53.00;;;;;;5024951;28;20446;-76
2021/05/21 09:22:03;;;;;;;3.90;2.17;;;17.70;52.60;;;;;;5035306;28;20460;-77
2021/05/21 09:24:41;;;;;;;2.10;1.63;;;17.80;52.70;;;;;;5037208;28;20456;-79
2021/05/21 09:27:18;;;;;;;3.50;1.70;;;18.40;52.60;;;;;;5043388;28;20447;-85
2021/05/21 09:30:03;;;;;;;5.73;1.63;;;18.40;52.50;;;;;;5045167;28;20456;-83
2021/05/21 09:32:40;;;;;;;2.30;1.43;;;18.30;52.40;;;;;;5046540;28;20445;-84
2021/05/21 09:35:20;;;;;;;1.93;1.80;;;17.80;52.50;;;;;;5044928;28;20929;-82
2021/05/21 09:37:56;;;;;;;2.22;1.50;;;17.50;52.60;;;;;;5041684;28;20473;-83
2021/05/21 09:40:32;;;;;;;3.17;1.42;;;17.30;52.40;;;;;;5041830;28;20441;-82
2021/05/21 09:43:08;;;;;;;4.03;1.60;;;17.30;52.50;;;;;;5042274;28;20191;-81
2021/05/21 09:45:45;;;;;;;1.70;1.40;;;17.60;52.20;;;;;;5039903;28;20444;-84
2021/05/21 09:48:21;;;;;;;4.40;1.67;;;18.00;52.20;;;;;;5034786;28;20666;-81
2021/05/21 09:50:56;;;;;;;4.30;1.40;;;18.20;52.10;;;;;;5041568;28;20553;-81
2021/05/21 09:53:33;;;;;;;4.10;1.53;;;18.40;52.00;;;;;;5042926;28;20452;-84
2021/05/21 09:56:20;;;;;;;2.37;1.50;;;18.40;52.60;;;;;;5040132;28;20489;-82
2021/05/21 09:58:59;;;;;;;1.53;1.30;;;18.20;52.40;;;;;;5037395;28;20448;-81
2021/05/21 10:01:37;;;;;;;2.00;1.45;;;18.20;52.50;;;;;;5033765;28;20548;-80
2021/05/21 10:04:12;;;;;;;4.10;1.37;;;18.40;52.30;;;;;;5028788;28;20212;-78
2021/05/21 10:06:47;;;;;;;3.90;1.50;;;17.90;51.90;;;;;;5028080;28;20448;-79
2021/05/21 10:09:21;;;;;;;1.30;1.20;;;18.10;51.90;;;;;;5031885;28;20968;-78
2021/05/21 10:11:56;;;;;;;2.07;1.40;;;18.20;51.70;;;;;;5033192;28;20518;-79
2021/05/21 10:14:32;;;;;;;2.90;1.40;;;18.50;51.50;;;;;;5037694;28;20460;-78
2021/05/21 10:17:12;;;;;;;2.20;1.30;;;17.90;50.60;;;;;;5037505;28;20486;-79
2021/05/21 10:19:47;;;;;;;1.40;1.30;;;17.90;50.60;;;;;;5042639;28;20485;-78
2021/05/21 10:22:26;;;;;;;2.97;1.50;;;17.90;50.90;;;;;;5044159;28;20457;-78
2021/05/21 10:25:07;;;;;;;2.60;1.60;;;18.00;50.90;;;;;;5042678;28;20442;-79
2021/05/21 10:27:46;;;;;;;4.43;1.60;;;18.20;51.10;;;;;;5034089;28;20453;-78
2021/05/21 10:30:25;;;;;;;2.03;1.30;;;18.30;50.90;;;;;;5036885;28;20454;-79
2021/05/21 10:33:20;;;;;;;1.40;1.30;;;18.50;51.00;;;;;;5036825;28;20766;-79
2021/05/21 10:36:15;;;;;;;3.60;1.70;;;18.70;50.80;;;;;;5028038;28;20466;-79
2021/05/21 10:39:07;;;;;;;3.27;1.47;;;18.50;50.90;;;;;;5034281;28;20906;-78
2021/05/21 10:41:52;;;;;;;1.57;1.40;;;18.30;51.00;;;;;;5035878;28;20662;-79
2021/05/21 10:44:27;;;;;;;3.77;1.50;;;18.10;51.10;;;;;;5034896;28;20454;-80
2021/05/21 10:47:28;;;;;;;5.20;1.30;;;18.10;51.20;;;;;;5040852;28;20531;-79
2021/05/21 10:50:20;;;;;;;3.37;1.40;;;18.00;51.30;;;;;;5034274;28;20453;-79
2021/05/21 10:53:13;;;;;;;2.50;1.60;;;17.70;51.20;;;;;;5035519;28;20521;-78
2021/05/21 10:55:58;;;;;;;3.40;1.60;;;17.70;51.60;;;;;;5034098;28;21074;-81
2021/05/21 10:58:53;;;;;;;2.97;1.60;;;18.20;51.60;;;;;;5028194;28;20456;-77
2021/05/21 11:01:32;;;;;;;2.00;1.53;;;18.00;51.20;;;;;;5030545;28;21068;-76
2021/05/21 11:04:20;;;;;;;8.57;1.57;;;18.00;51.80;;;;;;5022641;28;20454;-75
2021/05/21 11:07:00;;;;;;;2.07;1.50;;;17.80;51.40;;;;;;5028028;28;20508;-76
2021/05/21 11:09:45;;;;;;;2.80;1.30;;;17.70;51.40;;;;;;5025144;28;20529;-77
2021/05/21 11:12:20;;;;;;;3.30;1.23;;;17.70;51.60;;;;;;5025030;28;20559;-76
2021/05/21 11:14:52;;;;;;;8.40;1.83;;;17.80;51.40;;;;;;5028448;28;20457;-76
2021/05/21 11:17:31;;;;;;;1.93;1.43;;;18.00;51.90;;;;;;5024863;28;20486;-77
2021/05/21 11:20:16;;;;;;;3.90;1.40;;;18.10;51.80;;;;;;5025045;28;20455;-77
2021/05/21 11:22:52;;;;;;;2.63;1.40;;;17.80;51.60;;;;;;5026287;28;20456;-79
2021/05/21 11:25:26;;;;;;;4.03;1.60;;;17.90;51.70;;;;;;5031167;28;22003;-79
2021/05/21 11:28:01;;;;;;;2.47;1.67;;;17.90;51.90;;;;;;5027571;28;20455;-78
2021/05/21 11:30:38;;;;;;;3.20;1.60;;;17.90;51.70;;;;;;5029622;28;20941;-79
2021/05/21 11:33:13;;;;;;;1.40;1.30;;;18.10;51.80;;;;;;5028523;28;20897;-78
2021/05/21 11:35:48;;;;;;;2.90;1.70;;;18.10;51.70;;;;;;5028610;28;20560;-78
2021/05/21 11:38:29;;;;;;;3.63;1.60;;;18.40;51.80;;;;;;5026475;28;21008;-78
2021/05/21 11:41:04;;;;;;;2.20;1.53;;;18.70;51.40;;;;;;5037977;28;21123;-81
2021/05/21 11:43:44;;;;;;;3.45;1.60;;;19.40;51.30;;;;;;5032408;28;20446;-80
2021/05/21 11:46:24;;;;;;;2.20;1.57;;;19.80;51.20;;;;;;5035467;28;20190;-81
2021/05/21 11:48:59;;;;;;;1.40;1.10;;;19.30;51.20;;;;;;5035426;28;20815;-79
2021/05/21 11:51:35;;;;;;;3.33;1.77;;;19.70;51.40;;;;;;5039395;28;20472;-83
2021/05/21 11:54:11;;;;;;;3.67;1.27;;;19.70;51.00;;;;;;5043327;28;20603;-83
2021/05/21 11:56:46;;;;;;;2.60;1.63;;;20.40;50.90;;;;;;5035895;28;20477;-81
2021/05/21 11:59:23;;;;;;;3.30;1.37;;;20.60;50.70;;;;;;5033077;28;20462;-81
2021/05/21 12:02:01;;;;;;;1.80;1.13;;;20.60;50.80;;;;;;5034645;28;20532;-82
2021/05/21 12:04:39;;;;;;;3.47;1.70;;;20.60;50.60;;;;;;5032810;28;20453;-86
2021/05/21 12:07:24;;;;;;;2.30;1.20;;;20.40;51.00;;;;;;5037265;28;20191;-90
2021/05/21 12:13:03;;;;;;;3.77;1.10;;;21.00;50.80;;;;;;5038262;28;20485;-88
2021/05/21 12:15:47;;;;;;;1.50;1.20;;;20.80;50.00;;;;;;5029382;28;20470;-87
2021/05/21 12:18:46;;;;;;;5.40;1.53;;;20.80;49.80;;;;;;5035526;28;20987;-85
2021/05/21 12:21:26;;;;;;;1.93;1.13;;;20.90;49.50;;;;;;5030777;28;20454;-82
2021/05/21 12:24:02;;;;;;;1.33;0.93;;;20.70;49.60;;;;;;5033184;28;21203;-84
2021/05/21 12:29:47;;;;;;;3.47;1.50;;;20.50;49.40;;;;;;5028146;28;20453;-85
2021/05/21 12:32:28;;;;;;;1.83;1.40;;;20.50;49.40;;;;;;5036428;28;20452;-86
2021/05/21 12:35:17;;;;;;;2.63;1.50;;;20.90;49.50;;;;;;5045274;28;20452;-86
2021/05/21 12:37:58;;;;;;;1.50;1.03;;;20.60;48.90;;;;;;5049747;28;20501;-88
2021/05/21 12:40:40;;;;;;;1.17;0.73;;;20.60;48.90;;;;;;5045058;28;20453;-87
2021/05/21 12:43:46;;;;;;;2.43;0.80;;;20.70;47.80;;;;;;5057172;28;20477;-87
2021/05/21 12:46:24;;;;;;;1.30;0.90;;;20.70;47.80;;;;;;5053226;28;20499;-89
2021/05/21 12:52:18;;;;;;;1.40;0.90;;;21.00;46.80;;;;;;5048451;28;20617;-87
2021/05/21 12:55:23;;;;;;;1.20;0.70;;;21.30;46.90;;;;;;5040463;28;20934;-85
2021/05/21 12:58:06;;;;;;;1.13;0.90;;;20.70;46.30;;;;;;5039242;28;20457;-86
2021/05/21 13:00:53;;;;;;;1.07;0.50;;;21.20;46.80;;;;;;5034783;28;20456;-86
2021/05/21 13:03:26;;;;;;;0.90;0.80;;;21.10;46.40;;;;;;5036193;28;20454;-87
2021/05/21 13:06:06;;;;;;;1.80;0.70;;;21.70;46.50;;;;;;5040220;28;20446;-88
2021/05/21 13:08:50;;;;;;;5.60;0.90;;;21.50;45.70;;;;;;5020592;28;20478;-88
2021/05/21 13:11:30;;;;;;;2.70;1.50;;;21.20;46.40;;;;;;5038468;28;20534;-87
2021/05/21 13:14:17;;;;;;;1.00;0.73;;;21.10;46.30;;;;;;5036151;28;20438;-87
2021/05/21 13:16:55;;;;;;;5.77;0.87;;;20.10;46.50;;;;;;5038262;28;20469;-86
2021/05/21 13:19:38;;;;;;;1.90;0.90;;;20.30;46.90;;;;;;5037534;28;20449;-87
2021/05/21 13:22:18;;;;;;;3.27;0.97;;;;;;;;;;5039964;28;20469;-87
2021/05/21 13:24:57;;;;;;;3.70;0.80;;;;;;;;;;5041150;28;20446;-87
2021/05/21 13:27:36;;;;;;;2.00;0.90;;;;;;;;;;5034153;28;20473;-87
2021/05/21 13:33:01;;;;;;;1.90;1.30;;;;;;;;;;5037353;28;20489;-87
2021/05/21 13:35:41;;;;;;;2.43;1.37;;;;;;;;;;5038654;28;20807;-87
2021/05/21 13:38:16;;;;;;;1.87;1.20;;;;;;;;;;5036187;28;20844;-87
2021/05/21 13:40:49;;;;;;;1.57;0.93;;;;;;;;;;5037452;28;20452;-85
2021/05/21 13:43:22;;;;;;;2.13;1.70;;;;;;;;;;5033836;28;20565;-86
2021/05/21 13:46:00;;;;;;;1.93;1.03;;;;;;;;;;5040692;28;20464;-86
2021/05/21 13:51:27;;;;;;;3.30;1.03;;;;;;;;;;5051444;28;20471;-88
2021/05/21 13:54:05;;;;;;;3.97;1.23;;;;;;;;;;5043161;28;21016;-86
2021/05/21 13:56:42;;;;;;;4.37;1.57;;;;;;;;;;5042009;28;20470;-88
2021/05/21 13:59:20;;;;;;;1.83;1.20;;;;;;;;;;5041447;28;20457;-87
2021/05/21 14:01:58;;;;;;;4.63;1.27;;;;;;;;;;5042831;28;20453;-85
2021/05/21 14:04:31;;;;;;;1.70;1.00;;;;;;;;;;5044579;28;20518;-86
2021/05/21 14:07:05;;;;;;;1.33;1.20;;;;;;;;;;5043348;28;20519;-82
2021/05/21 14:09:37;;;;;;;2.50;1.10;;;;;;;;;;5028252;28;20457;-83